createdAt,value
2023-11-24T00:01:08.522Z,98674.70
2023-11-24T00:03:40.551Z,98668.59
2023-11-24T00:06:08.918Z,98669.30
2023-11-24T00:08:37.619Z,98672.83
2023-11-24T00:11:06.209Z,98679.20
2023-11-24T00:13:34.155Z,98687.98
2023-11-24T00:16:02.811Z,98682.93
2023-11-24T00:18:31.700Z,98693.98
2023-11-24T00:21:07.613Z,98693.70
2023-11-24T00:23:35.856Z,98686.72
2023-11-24T00:26:08.127Z,98670.36
2023-11-24T00:28:40.680Z,98678.11
2023-11-24T00:31:09.389Z,98677.36
2023-11-24T00:33:37.737Z,98664.90
2023-11-24T00:36:09.118Z,98671.63
2023-11-24T00:38:37.300Z,98673.38
2023-11-24T00:41:09.652Z,98675.47
2023-11-24T00:43:38.164Z,98685.33
2023-11-24T00:46:07.582Z,98686.34
2023-11-24T00:48:36.837Z,98689.80
2023-11-24T00:51:08.488Z,98686.38
2023-11-24T00:53:36.520Z,98689.85
2023-11-24T00:56:05.130Z,98685.02
2023-11-24T00:58:33.111Z,98690.39
2023-11-24T01:01:01.931Z,98691.41
2023-11-24T01:03:30.275Z,98699.52
2023-11-24T01:05:59.412Z,98695.75
2023-11-24T01:08:27.547Z,98702.52
2023-11-24T01:10:57.821Z,98694.96
2023-11-24T01:13:26.123Z,98703.63
2023-11-24T01:15:54.104Z,98708.41
2023-11-24T01:18:22.735Z,98705.94
2023-11-24T01:20:50.788Z,98694.45
2023-11-24T01:23:18.967Z,98694.35
2023-11-24T01:25:48.170Z,98703.41
2023-11-24T01:28:16.417Z,98698.80
2023-11-24T01:30:44.743Z,98693.66
2023-11-24T01:33:13.019Z,98682.53
2023-11-24T01:35:41.762Z,98682.53
2023-11-24T01:38:10.989Z,98669.54
2023-11-24T01:40:39.333Z,98678.64
2023-11-24T01:43:08.012Z,98689.86
2023-11-24T01:45:36.011Z,98694.63
2023-11-24T01:48:04.517Z,98695.53
2023-11-24T01:50:33.396Z,98700.05
2023-11-24T01:53:01.629Z,98700.08
2023-11-24T01:55:29.892Z,98701.01
2023-11-24T01:57:58.473Z,98700.75
2023-11-24T02:00:27.770Z,98703.38
2023-11-24T02:02:59.130Z,98707.23
2023-11-24T02:05:27.394Z,98704.13
2023-11-24T02:07:56.039Z,98699.48
2023-11-24T02:10:24.101Z,98698.08
2023-11-24T02:12:52.894Z,98708.95
2023-11-24T02:15:21.287Z,98706.74
2023-11-24T02:17:49.421Z,98713.50
2023-11-24T02:20:18.138Z,98714.21
2023-11-24T02:22:46.255Z,98717.33
2023-11-24T02:25:15.236Z,98713.00
2023-11-24T02:27:43.551Z,98708.63
2023-11-24T02:30:13.006Z,98705.10
2023-11-24T02:32:41.299Z,98700.75
2023-11-24T02:35:10.979Z,98704.82
2023-11-24T02:37:39.383Z,98699.96
2023-11-24T02:40:09.836Z,98708.70
2023-11-24T02:42:37.963Z,98707.42
2023-11-24T02:45:07.500Z,98711.52
2023-11-24T02:47:35.926Z,98708.70
2023-11-24T02:50:04.929Z,98705.38
2023-11-24T02:52:33.027Z,98704.63
2023-11-24T02:55:01.193Z,98700.43
2023-11-24T02:57:29.339Z,98695.93
2023-11-24T02:59:57.344Z,98694.23
2023-11-24T03:02:25.453Z,98689.83
2023-11-24T03:04:53.641Z,98694.35
2023-11-24T03:07:21.869Z,98695.75
2023-11-24T03:09:53.051Z,98697.85
2023-11-24T03:12:22.710Z,98695.08
2023-11-24T03:14:50.878Z,98699.05
2023-11-24T03:17:18.792Z,98701.64
2023-11-24T03:19:46.785Z,98701.08
2023-11-24T03:22:15.730Z,98708.13
2023-11-24T03:24:43.836Z,98714.12
2023-11-24T03:27:11.953Z,98712.20
2023-11-24T03:29:40.994Z,98710.97
2023-11-24T03:32:08.943Z,98708.01
2023-11-24T03:34:37.459Z,98709.02
2023-11-24T03:37:05.824Z,98707.25
2023-11-24T03:39:34.042Z,98711.73
2023-11-24T03:42:02.219Z,98708.77
2023-11-24T03:44:30.283Z,98699.77
2023-11-24T03:46:58.787Z,98699.26
2023-11-24T03:49:26.870Z,98695.78
2023-11-24T03:51:54.839Z,98701.29
2023-11-24T03:54:23.456Z,98703.17
2023-11-24T03:56:51.634Z,98704.38
2023-11-24T03:59:19.659Z,98698.67
2023-11-24T04:01:47.704Z,98700.70
2023-11-24T04:04:16.059Z,98700.84
2023-11-24T04:06:44.591Z,98701.67
2023-11-24T04:09:12.689Z,98701.99
2023-11-24T04:11:40.799Z,98698.89
2023-11-24T04:14:08.841Z,98699.77
2023-11-24T04:16:37.713Z,98702.73
2023-11-24T04:19:08.117Z,98703.45
2023-11-24T04:21:37.424Z,98704.14
2023-11-24T04:24:06.466Z,98697.77
2023-11-24T04:26:35.582Z,98693.33
2023-11-24T04:29:04.266Z,98693.39
2023-11-24T04:31:32.244Z,98706.69
2023-11-24T04:34:01.652Z,98696.17
2023-11-24T04:36:30.234Z,98694.79
2023-11-24T04:38:58.382Z,98700.98
2023-11-24T04:41:26.438Z,98706.16
2023-11-24T04:43:54.524Z,98708.23
2023-11-24T04:46:23.379Z,98703.95
2023-11-24T04:48:51.543Z,98704.36
2023-11-24T04:51:19.793Z,98701.16
2023-11-24T04:53:48.035Z,98697.77
2023-11-24T04:56:16.103Z,98690.55
2023-11-24T04:58:44.539Z,98687.46
2023-11-24T05:01:13.102Z,98686.17
2023-11-24T05:03:41.966Z,98682.80
2023-11-24T05:06:10.022Z,98680.80
2023-11-24T05:08:38.365Z,98686.73
2023-11-24T05:11:09.480Z,98688.67
2023-11-24T05:13:37.554Z,98685.28
2023-11-24T05:16:06.563Z,98687.56
2023-11-24T05:18:34.753Z,98691.37
2023-11-24T05:21:02.763Z,98692.27
2023-11-24T05:23:30.739Z,98690.02
2023-11-24T05:25:58.836Z,98692.30
2023-11-24T05:28:26.904Z,98691.30
2023-11-24T05:30:55.492Z,98698.23
2023-11-24T05:33:23.634Z,98700.48
2023-11-24T05:35:51.688Z,98706.14
2023-11-24T05:38:19.816Z,98715.29
2023-11-24T05:40:47.828Z,98716.82
2023-11-24T05:43:16.052Z,98711.61
2023-11-24T05:45:44.327Z,98711.60
2023-11-24T05:48:12.394Z,98715.49
2023-11-24T05:50:40.385Z,98712.34
2023-11-24T05:53:08.783Z,98710.77
2023-11-24T05:55:36.872Z,98719.89
2023-11-24T05:58:07.250Z,98727.48
2023-11-24T06:00:35.526Z,98735.81
2023-11-24T06:03:03.741Z,98754.57
2023-11-24T06:05:31.951Z,98760.02
2023-11-24T06:08:02.945Z,98760.66
2023-11-24T06:10:30.926Z,98764.63
2023-11-24T06:12:59.267Z,98770.52
2023-11-24T06:15:27.437Z,98776.55
2023-11-24T06:17:55.488Z,98770.66
2023-11-24T06:20:25.402Z,98772.71
2023-11-24T06:22:53.470Z,98766.45
2023-11-24T06:25:21.656Z,98775.86
2023-11-24T06:27:49.885Z,98775.81
2023-11-24T06:30:18.490Z,98771.75
2023-11-24T06:32:46.595Z,98783.21
2023-11-24T06:35:16.969Z,98790.00
2023-11-24T06:37:45.112Z,98796.13
2023-11-24T06:40:13.469Z,98800.02
2023-11-24T06:42:42.274Z,98801.13
2023-11-24T06:45:14.042Z,98794.45
2023-11-24T06:47:42.845Z,98803.10
2023-11-24T06:50:13.550Z,98801.59
2023-11-24T06:52:42.557Z,98802.33
2023-11-24T06:55:14.338Z,98795.84
2023-11-24T06:57:42.813Z,98793.48
2023-11-24T07:00:17.918Z,98798.15
2023-11-24T07:02:47.561Z,98792.49
2023-11-24T07:05:19.397Z,98799.73
2023-11-24T07:07:47.463Z,98801.11
2023-11-24T07:10:16.083Z,98799.41
2023-11-24T07:12:45.396Z,98791.83
2023-11-24T07:15:14.301Z,98794.39
2023-11-24T07:17:42.650Z,98791.81
2023-11-24T07:20:12.837Z,98782.52
2023-11-24T07:22:45.521Z,98788.21
2023-11-24T07:25:16.466Z,98779.08
2023-11-24T07:27:44.751Z,98774.42
2023-11-24T07:30:13.334Z,98775.27
2023-11-24T07:32:41.646Z,98776.63
2023-11-24T07:35:12.033Z,98789.52
2023-11-24T07:37:40.354Z,98784.70
2023-11-24T07:40:15.717Z,98791.73
2023-11-24T07:42:46.006Z,98793.29
2023-11-24T07:45:14.532Z,98781.92
2023-11-24T07:47:42.667Z,98780.90
2023-11-24T07:50:11.089Z,98756.46
2023-11-24T07:52:39.143Z,98756.64
2023-11-24T07:55:07.549Z,98754.59
2023-11-24T07:57:36.776Z,98761.65
2023-11-24T08:00:05.592Z,98769.02
2023-11-24T08:02:41.366Z,98772.82
2023-11-24T08:05:10.077Z,98771.45
2023-11-24T08:07:39.036Z,98767.80
2023-11-24T08:10:08.128Z,98767.95
2023-11-24T08:12:36.168Z,98763.98
2023-11-24T08:15:04.445Z,98768.08
2023-11-24T08:17:32.539Z,98768.20
2023-11-24T08:20:00.728Z,98769.05
2023-11-24T08:22:29.772Z,98768.33
2023-11-24T08:24:57.915Z,98773.30
2023-11-24T08:27:26.064Z,98771.20
2023-11-24T08:29:54.232Z,98774.43
2023-11-24T08:32:22.260Z,98780.61
2023-11-24T08:34:50.503Z,98784.55
2023-11-24T08:37:19.128Z,98792.13
2023-11-24T08:39:47.253Z,98799.70
2023-11-24T08:42:15.807Z,98800.38
2023-11-24T08:44:43.791Z,98793.95
2023-11-24T08:47:11.907Z,98795.97
2023-11-24T08:49:40.393Z,98799.89
2023-11-24T08:52:10.752Z,98801.90
2023-11-24T08:54:39.570Z,98806.85
2023-11-24T08:57:08.996Z,98803.33
2023-11-24T08:59:37.636Z,98807.04
2023-11-24T09:02:05.959Z,98814.38
2023-11-24T09:04:34.172Z,98817.95
2023-11-24T09:07:02.594Z,98814.61
2023-11-24T09:09:30.573Z,98815.23
2023-11-24T09:11:58.546Z,98821.06
2023-11-24T09:14:26.603Z,98813.63
2023-11-24T09:16:54.880Z,98808.41
2023-11-24T09:19:23.185Z,98810.14
2023-11-24T09:21:51.928Z,98807.70
2023-11-24T09:24:20.088Z,98799.92
2023-11-24T09:26:48.126Z,98803.02
2023-11-24T09:29:16.226Z,98807.00
2023-11-24T09:31:44.458Z,98805.98
2023-11-24T09:34:13.334Z,98798.79
2023-11-24T09:36:43.384Z,98801.06
2023-11-24T09:39:11.376Z,98803.98
2023-11-24T09:41:41.010Z,98802.77
2023-11-24T09:44:11.447Z,98801.05
2023-11-24T09:46:49.214Z,98796.20
2023-11-24T09:49:21.581Z,98798.77
2023-11-24T09:51:49.716Z,98795.63
2023-11-24T09:54:19.405Z,98798.18
2023-11-24T09:56:47.728Z,98795.52
2023-11-24T09:59:15.902Z,98790.81
2023-11-24T10:01:44.219Z,98793.77
2023-11-24T10:04:14.067Z,98797.64
2023-11-24T10:06:45.038Z,98794.75
2023-11-24T10:09:23.108Z,98792.58
2023-11-24T10:11:51.627Z,98798.83
2023-11-24T10:14:22.965Z,98804.56
2023-11-24T10:16:51.200Z,98798.56
2023-11-24T10:19:22.877Z,98796.32
2023-11-24T10:21:55.102Z,98796.49
2023-11-24T10:24:26.655Z,98794.63
2023-11-24T10:26:54.998Z,98793.85
2023-11-24T10:29:28.453Z,98791.56
2023-11-24T10:31:56.428Z,98792.89
2023-11-24T10:34:25.951Z,98799.58
2023-11-24T10:36:54.883Z,98802.48
2023-11-24T10:39:26.892Z,98803.29
2023-11-24T10:41:56.034Z,98806.31
2023-11-24T10:44:26.490Z,98809.17
2023-11-24T10:47:01.393Z,98810.31
2023-11-24T10:49:35.971Z,98809.38
2023-11-24T10:52:14.621Z,98807.01
2023-11-24T10:54:51.603Z,98806.77
2023-11-24T10:57:23.349Z,98804.36
2023-11-24T10:59:51.948Z,98801.01
2023-11-24T11:02:20.986Z,98800.23
2023-11-24T11:05:18.876Z,98797.48
2023-11-24T11:08:20.472Z,98804.88
2023-11-24T11:11:03.242Z,98803.34
2023-11-24T11:13:32.040Z,98809.03
2023-11-24T11:16:00.135Z,98808.27
2023-11-24T11:18:28.189Z,98804.71
2023-11-24T11:20:56.191Z,98804.38
2023-11-24T11:23:27.275Z,98803.69
2023-11-24T11:25:55.539Z,98806.32
2023-11-24T11:28:36.056Z,98804.10
2023-11-24T11:31:24.133Z,98801.94
2023-11-24T11:33:52.207Z,98807.21
2023-11-24T11:36:23.581Z,98807.79
2023-11-24T11:38:54.763Z,98809.58
2023-11-24T11:41:46.443Z,98811.70
2023-11-24T11:44:27.499Z,98809.95
2023-11-24T11:47:23.075Z,98813.29
2023-11-24T11:49:55.896Z,98809.39
2023-11-24T11:52:27.643Z,98805.80
2023-11-24T11:54:58.112Z,98804.95
2023-11-24T11:57:26.598Z,98807.38
2023-11-24T11:59:55.131Z,98813.27
2023-11-24T12:02:24.789Z,98811.87
2023-11-24T12:04:53.299Z,98812.31
2023-11-24T12:07:21.990Z,98820.05
2023-11-24T12:09:50.872Z,98819.30
2023-11-24T12:12:21.051Z,98820.95
2023-11-24T12:14:50.581Z,98818.64
2023-11-24T12:17:18.961Z,98818.25
2023-11-24T12:19:49.677Z,98818.42
2023-11-24T12:22:19.710Z,98816.18
2023-11-24T12:24:48.397Z,98818.77
2023-11-24T12:27:16.606Z,98819.17
2023-11-24T12:29:47.457Z,98816.92
2023-11-24T12:32:15.904Z,98817.22
2023-11-24T12:34:46.547Z,98812.65
2023-11-24T12:37:15.362Z,98813.81
2023-11-24T12:39:43.891Z,98812.23
2023-11-24T12:42:12.368Z,98816.06
2023-11-24T12:44:41.197Z,98817.15
2023-11-24T12:47:16.043Z,98818.23
2023-11-24T12:50:02.203Z,98819.15
2023-11-24T12:52:32.723Z,98821.48
2023-11-24T12:55:08.911Z,98823.59
2023-11-24T12:57:41.410Z,98823.82
2023-11-24T13:00:16.113Z,98825.09
2023-11-24T13:02:46.428Z,98825.48
2023-11-24T13:05:17.745Z,98825.66
2023-11-24T13:07:46.532Z,98825.02
2023-11-24T13:10:14.810Z,98823.66
2023-11-24T13:12:43.312Z,98823.00
2023-11-24T13:15:11.635Z,98817.33
2023-11-24T13:17:40.182Z,98814.64
2023-11-24T13:20:13.067Z,98811.86
2023-11-24T13:22:43.578Z,98810.73
2023-11-24T13:25:13.047Z,98812.14
2023-11-24T13:27:43.062Z,98813.86
2023-11-24T13:30:13.248Z,98816.45
2023-11-24T13:32:43.025Z,98815.57
2023-11-24T13:35:12.317Z,98816.95
2023-11-24T13:37:40.847Z,98815.39
2023-11-24T13:40:13.409Z,98814.37
2023-11-24T13:42:41.730Z,98822.19
2023-11-24T13:45:12.834Z,98822.05
2023-11-24T13:47:42.560Z,98826.05
2023-11-24T13:50:11.278Z,98827.80
2023-11-24T13:52:39.383Z,98827.52
2023-11-24T13:55:08.251Z,98828.02
2023-11-24T13:57:37.191Z,98829.42
2023-11-24T14:00:10.896Z,98833.08
2023-11-24T14:02:39.281Z,98834.50
2023-11-24T14:05:09.937Z,98834.34
2023-11-24T14:07:38.058Z,98840.61
2023-11-24T14:10:07.777Z,98845.86
2023-11-24T14:12:36.659Z,98846.09
2023-11-24T14:15:05.825Z,98843.38
2023-11-24T14:17:37.176Z,98840.30
2023-11-24T14:20:08.208Z,98838.07
2023-11-24T14:22:37.590Z,98834.29
2023-11-24T14:25:10.277Z,98835.71
2023-11-24T14:27:41.594Z,98839.36
2023-11-24T14:30:09.989Z,98837.15
2023-11-24T14:32:38.164Z,98838.39
2023-11-24T14:35:07.923Z,98832.89
2023-11-24T14:37:36.219Z,98833.10
2023-11-24T14:40:19.939Z,98827.60
2023-11-24T14:42:51.240Z,98824.76
2023-11-24T14:45:22.061Z,98824.52
2023-11-24T14:47:51.548Z,98824.23
2023-11-24T14:50:20.734Z,98826.02
2023-11-24T14:52:49.012Z,98830.53
2023-11-24T14:55:18.152Z,98827.77
2023-11-24T14:57:46.740Z,98828.30
2023-11-24T15:00:32.014Z,98826.98
2023-11-24T15:03:09.366Z,98828.75
2023-11-24T15:05:42.076Z,98830.83
2023-11-24T15:08:15.477Z,98832.36
2023-11-24T15:10:44.930Z,98834.23
2023-11-24T15:13:22.921Z,98832.68
2023-11-24T15:15:51.265Z,98835.95
2023-11-24T15:18:21.651Z,98837.52
2023-11-24T15:20:54.642Z,98841.86
2023-11-24T15:23:25.082Z,98845.33
2023-11-24T15:25:56.396Z,98847.59
2023-11-24T15:28:25.162Z,98850.73
2023-11-24T15:30:55.105Z,98846.27
2023-11-24T15:33:23.584Z,98849.56
2023-11-24T15:35:51.769Z,98848.39
2023-11-24T15:38:21.845Z,98846.20
2023-11-24T15:40:52.520Z,98848.48
2023-11-24T15:43:25.455Z,98850.77
2023-11-24T15:45:56.340Z,98847.20
2023-11-24T15:48:26.553Z,98850.19
2023-11-24T15:50:54.769Z,98849.58
2023-11-24T15:53:23.355Z,98855.49
2023-11-24T15:55:52.916Z,98855.89
2023-11-24T15:58:26.566Z,98863.00
2023-11-24T16:00:58.089Z,98869.40
2023-11-24T16:03:26.697Z,98868.56
2023-11-24T16:05:59.334Z,98872.03
2023-11-24T16:08:34.586Z,98875.33
2023-11-24T16:11:11.388Z,98875.36
2023-11-24T16:13:42.770Z,98873.67
2023-11-24T16:16:11.336Z,98878.55
2023-11-24T16:18:41.825Z,98878.22
2023-11-24T16:21:09.954Z,98874.63
2023-11-24T16:23:37.949Z,98876.17
2023-11-24T16:26:06.181Z,98872.20
2023-11-24T16:28:35.077Z,98870.48
2023-11-24T16:31:03.228Z,98870.46
2023-11-24T16:33:34.454Z,98865.46
2023-11-24T16:36:02.592Z,98864.44
2023-11-24T16:38:31.896Z,98865.98
2023-11-24T16:41:04.845Z,98866.34
2023-11-24T16:43:33.095Z,98868.92
2023-11-24T16:46:01.184Z,98873.57
2023-11-24T16:48:29.172Z,98875.11
2023-11-24T16:50:58.368Z,98876.14
2023-11-24T16:53:26.350Z,98874.05
2023-11-24T16:55:54.384Z,98868.23
2023-11-24T16:58:22.655Z,98871.01
2023-11-24T17:00:50.985Z,98871.03
2023-11-24T17:03:19.225Z,98866.92
2023-11-24T17:05:47.921Z,98866.42
2023-11-24T17:08:15.986Z,98869.55
2023-11-24T17:10:44.146Z,98868.04
2023-11-24T17:13:12.332Z,98869.09
2023-11-24T17:15:40.440Z,98868.77
2023-11-24T17:18:10.704Z,98872.73
2023-11-24T17:20:38.888Z,98869.11
2023-11-24T17:23:07.074Z,98867.04
2023-11-24T17:25:37.249Z,98867.38
2023-11-24T17:28:06.572Z,98865.50
2023-11-24T17:30:35.375Z,98868.09
2023-11-24T17:33:03.689Z,98867.59
2023-11-24T17:35:32.493Z,98867.27
2023-11-24T17:38:00.700Z,98870.04
2023-11-24T17:40:28.990Z,98871.57
2023-11-24T17:42:57.324Z,98870.20
2023-11-24T17:45:25.442Z,98870.16
2023-11-24T17:47:53.687Z,98868.91
2023-11-24T17:50:21.927Z,98865.45
2023-11-24T17:52:50.659Z,98864.55
2023-11-24T17:55:21.968Z,98864.36
2023-11-24T17:57:50.628Z,98865.40
2023-11-24T18:00:22.587Z,98866.23
2023-11-24T18:02:51.118Z,98866.73
2023-11-24T18:05:19.713Z,98866.56
2023-11-24T18:07:47.899Z,98868.62
2023-11-24T18:10:16.156Z,98871.02
2023-11-24T18:12:44.800Z,98876.86
2023-11-24T18:15:14.893Z,98873.58
2023-11-24T18:17:43.452Z,98874.09
2023-11-24T18:20:15.140Z,98876.15
2023-11-24T18:22:43.701Z,98875.98
2023-11-24T18:25:13.440Z,98876.35
2023-11-24T18:27:41.574Z,98873.42
2023-11-24T18:30:11.326Z,98875.84
2023-11-24T18:32:40.675Z,98871.01
2023-11-24T18:35:09.872Z,98871.00
2023-11-24T18:37:39.130Z,98874.64
2023-11-24T18:40:09.661Z,98873.29
2023-11-24T18:42:37.841Z,98876.58
2023-11-24T18:45:07.911Z,98880.03
2023-11-24T18:47:36.224Z,98880.02
2023-11-24T18:50:07.420Z,98879.15
2023-11-24T18:52:36.119Z,98878.61
2023-11-24T18:55:08.270Z,98874.66
2023-11-24T18:57:36.478Z,98875.03
2023-11-24T19:00:06.192Z,98873.32
2023-11-24T19:02:36.215Z,98872.80
2023-11-24T19:05:07.368Z,98872.43
2023-11-24T19:07:35.810Z,98869.66
2023-11-24T19:10:04.574Z,98870.33
2023-11-24T19:12:32.612Z,98867.71
2023-11-24T19:15:00.704Z,98868.03
2023-11-24T19:17:28.868Z,98871.80
2023-11-24T19:19:57.314Z,98869.42
2023-11-24T19:22:25.367Z,98872.86
2023-11-24T19:24:53.417Z,98874.10
2023-11-24T19:27:21.475Z,98876.87
2023-11-24T19:29:49.576Z,98880.31
2023-11-24T19:32:17.998Z,98879.77
2023-11-24T19:34:46.197Z,98881.31
2023-11-24T19:37:14.412Z,98881.83
2023-11-24T19:39:44.177Z,98880.45
2023-11-24T19:42:12.163Z,98879.25
2023-11-24T19:44:40.223Z,98877.71
2023-11-24T19:47:10.584Z,98883.73
2023-11-24T19:49:39.639Z,98882.19
2023-11-24T19:52:07.961Z,98884.59
2023-11-24T19:54:36.098Z,98884.42
2023-11-24T19:57:05.432Z,98890.26
2023-11-24T19:59:33.552Z,98892.48
2023-11-24T20:02:04.221Z,98892.86
2023-11-24T20:04:32.422Z,98898.41
2023-11-24T20:07:00.757Z,98895.86
2023-11-24T20:09:29.028Z,98901.58
2023-11-24T20:11:57.352Z,98901.59
2023-11-24T20:14:25.471Z,98903.19
2023-11-24T20:16:53.551Z,98899.42
2023-11-24T20:19:22.067Z,98901.50
2023-11-24T20:21:50.289Z,98905.13
2023-11-24T20:24:18.612Z,98904.27
2023-11-24T20:26:46.736Z,98904.77
2023-11-24T20:29:15.857Z,98909.11
2023-11-24T20:31:44.615Z,98907.73
2023-11-24T20:34:12.829Z,98908.94
2023-11-24T20:36:40.971Z,98906.21
2023-11-24T20:39:09.032Z,98908.80
2023-11-24T20:41:41.154Z,98908.44
2023-11-24T20:44:09.589Z,98910.67
2023-11-24T20:46:38.263Z,98909.46
2023-11-24T20:49:07.652Z,98912.92
2023-11-24T20:51:35.835Z,98913.44
2023-11-24T20:54:04.035Z,98913.77
2023-11-24T20:56:32.279Z,98910.48
2023-11-24T20:59:00.356Z,98913.73
2023-11-24T21:01:29.018Z,98913.04
2023-11-24T21:03:57.373Z,98916.48
2023-11-24T21:06:25.387Z,98920.81
2023-11-24T21:08:59.637Z,98925.12
2023-11-24T21:11:28.998Z,98927.88
2023-11-24T21:13:57.236Z,98928.74
2023-11-24T21:16:27.045Z,98927.55
2023-11-24T21:18:55.499Z,98932.20
2023-11-24T21:21:23.867Z,98931.51
2023-11-24T21:23:52.014Z,98934.60
2023-11-24T21:26:21.570Z,98934.41
2023-11-24T21:28:50.747Z,98934.41
2023-11-24T21:31:20.396Z,98937.67
2023-11-24T21:33:50.076Z,98939.38
2023-11-24T21:36:18.325Z,98937.84
2023-11-24T21:38:46.476Z,98942.66
2023-11-24T21:41:20.771Z,98946.53
2023-11-24T21:43:50.012Z,98945.73
2023-11-24T21:46:24.118Z,98947.16
2023-11-24T21:48:53.095Z,98951.02
2023-11-24T21:51:21.169Z,98952.14
2023-11-24T21:53:49.232Z,98962.71
2023-11-24T21:56:31.580Z,98965.72
2023-11-24T21:59:00.123Z,98964.56
2023-11-24T22:01:28.612Z,98968.17
2023-11-24T22:03:57.193Z,98966.49
2023-11-24T22:06:29.721Z,98974.27
2023-11-24T22:08:57.850Z,98972.75
2023-11-24T22:11:25.839Z,98978.28
2023-11-24T22:13:53.803Z,98976.91
2023-11-24T22:16:22.326Z,98977.79
2023-11-24T22:18:51.659Z,98977.11
2023-11-24T22:21:21.304Z,98981.08
2023-11-24T22:23:50.042Z,98982.63
2023-11-24T22:26:23.211Z,98985.20
2023-11-24T22:28:53.686Z,98987.61
2023-11-24T22:31:21.894Z,98990.52
2023-11-24T22:33:50.244Z,98997.56
2023-11-24T22:36:20.732Z,98996.52
2023-11-24T22:38:50.724Z,98995.15
2023-11-24T22:41:22.338Z,99001.35
2023-11-24T22:43:53.789Z,99005.13
2023-11-24T22:46:24.166Z,99012.34
2023-11-24T22:48:53.910Z,99013.71
2023-11-24T22:51:24.113Z,99016.98
2023-11-24T22:53:52.403Z,99025.58
2023-11-24T22:56:25.271Z,99024.20
2023-11-24T22:59:00.104Z,99031.10
2023-11-24T23:01:28.883Z,99041.95
2023-11-24T23:03:59.188Z,99041.45
2023-11-24T23:06:29.469Z,99045.23
2023-11-24T23:08:57.902Z,99045.23
2023-11-24T23:11:27.344Z,99033.20
2023-11-24T23:13:55.480Z,99021.67
2023-11-24T23:16:26.863Z,99013.23
2023-11-24T23:18:55.114Z,99009.95
2023-11-24T23:21:24.168Z,99012.17
2023-11-24T23:23:53.214Z,99010.27
2023-11-24T23:26:22.806Z,99006.13
2023-11-24T23:28:51.800Z,99011.97
2023-11-24T23:31:20.353Z,99025.90
2023-11-24T23:33:48.598Z,99035.18
2023-11-24T23:36:17.256Z,99040.15
2023-11-24T23:38:47.122Z,99048.41
2023-11-24T23:41:15.522Z,99052.88
2023-11-24T23:43:44.270Z,99048.73
2023-11-24T23:46:12.731Z,99053.38
2023-11-24T23:48:40.885Z,99051.14
2023-11-24T23:51:08.921Z,99047.86
2023-11-24T23:53:36.988Z,99045.27
2023-11-24T23:56:06.963Z,99050.61
2023-11-24T23:58:38.655Z,99057.31
